This is the latest recevied weather packets stored in our database for station/object KC1HBM. If no packets are shown the sender has not sent any weather packets the latest 10 day(s).
| Time | Temp. | Humidity | Pressure | Rain* | Wind** | Luminosity | Snow |
|---|---|---|---|---|---|---|---|
| 1777918052 | 20° C | 38% | 1003 hPa | 0 mm | - | 108 W/m² | - |
| 1777917751 | 20° C | 39% | 1002.9 hPa | 0 mm | - | 94 W/m² | - |
| 1777917448 | 20° C | 38% | 1003 hPa | 0 mm | - | 91 W/m² | - |
| 1777917144 | 20° C | 37% | 1002.8 hPa | 0 mm | - | 102 W/m² | - |
| 1777916842 | 20° C | 38% | 1002.6 hPa | 0 mm | - | 109 W/m² | - |
| 1777916540 | 20° C | 37% | 1003.1 hPa | 0 mm | - | 85 W/m² | - |
| 1777916236 | 20° C | 37% | 1002.9 hPa | 0 mm | - | 104 W/m² | - |
| 1777915933 | 20° C | 38% | 1002.8 hPa | 0 mm | - | 82 W/m² | - |
| 1777915630 | 20.56° C | 36% | 1002.9 hPa | 0 mm | - | 90 W/m² | - |
| 1777915326 | 20.56° C | 37% | 1002.8 hPa | 0 mm | - | 94 W/m² | - |
| 1777915023 | 21.11° C | 35% | 1002.7 hPa | 0 mm | - | 149 W/m² | - |
| 1777914720 | 21.67° C | 34% | 1002.8 hPa | 0 mm | - | 709 W/m² | - |
| 1777914416 | 21.11° C | 36% | 1002.7 hPa | 0 mm | - | 167 W/m² | - |
| 1777914114 | 21.67° C | 36% | 1002.9 hPa | 0 mm | - | 111 W/m² | - |
| 1777913810 | 21.11° C | 39% | 1002.9 hPa | 0 mm | - | 739 W/m² | - |
| 1777913507 | 21.11° C | 37% | 1002.9 hPa | 0 mm | - | 826 W/m² | - |
| 1777913203 | 21.67° C | 38% | 1002.8 hPa | 0 mm | - | 240 W/m² | - |
| 1777912899 | 21.67° C | 38% | 1003 hPa | 0 mm | - | 839 W/m² | - |
| 1777912596 | 21.67° C | 35% | 1003.2 hPa | 0 mm | - | 772 W/m² | - |
| 1777912292 | 21.11° C | 35% | 1003.4 hPa | 0 mm | - | 737 W/m² | - |
| 1777911988 | 19.44° C | 42% | 1003.2 hPa | 0 mm | - | 774 W/m² | - |
| 1777911685 | 18.33° C | 51% | 1003.4 hPa | 0 mm | - | 734 W/m² | - |
| 1777911381 | 18.33° C | 50% | 1003.2 hPa | 0 mm | - | 712 W/m² | - |
| 1777911079 | 16.67° C | 54% | 1003.5 hPa | 0 mm | - | 687 W/m² | - |
| 1777910776 | 17.78° C | 55% | 1003.3 hPa | 0 mm | - | 619 W/m² | - |
* Rain latest hour (hover to see other rain measurements)
** Current wind speed in m/s (hover to see current wind gust speed)